Time;durP1;ratioP1;P1;durP2;ratioP2;P2;SDS_P1;SDS_P2;PMS_P1;PMS_P2;Temp;Humidity;BMP_temperature;BMP_pressure;BME280_temperature;BME280_humidity;BME280_pressure;Samples;Min_cycle;Max_cycle;Signal;HPM_P1;HPM_P2
2022/01/18 00:02:11;;;;;;;;;66.00;53.00;;;;;7.43;64.32;103577.25;4962716;28;45550;-80
2022/01/18 00:05:05;;;;;;;;;67.25;54.00;;;;;7.34;64.26;103553.22;4978645;28;45356;-80
2022/01/18 00:07:41;;;;;;;;;64.75;53.25;;;;;7.43;64.18;103564.00;4978974;28;45369;-80
2022/01/18 00:10:07;;;;;;;;;63.00;52.50;;;;;7.42;64.27;103587.84;4979051;28;46285;-81
2022/01/18 00:18:24;;;;;;;;;69.25;54.00;;;;;7.32;64.12;103565.59;4979364;28;45388;-81
2022/01/18 00:24:15;;;;;;;;;68.25;53.00;;;;;7.21;64.59;103562.78;4958231;28;45426;-81
2022/01/18 00:26:46;;;;;;;;;67.50;51.25;;;;;7.16;64.52;103538.84;4970148;28;45397;-81
2022/01/18 00:29:23;;;;;;;;;76.75;59.75;;;;;7.19;63.92;103562.75;4979152;28;45482;-81
2022/01/18 00:32:55;;;;;;;;;71.75;56.25;;;;;7.26;64.36;103581.38;4979039;28;46691;-81
2022/01/18 00:34:52;;;;;;;;;72.50;56.00;;;;;7.22;64.43;103555.72;4970937;28;45592;-80
2022/01/18 00:37:32;;;;;;;;;72.25;56.75;;;;;7.19;64.33;103570.69;4978270;28;45460;-80
2022/01/18 00:40:12;;;;;;;;;67.50;54.75;;;;;7.02;63.89;103543.00;4979022;28;45535;-81
2022/01/18 00:42:44;;;;;;;;;68.75;54.50;;;;;7.06;64.25;103541.31;4978829;28;46705;-80
2022/01/18 00:45:49;;;;;;;;;68.25;54.75;;;;;7.03;64.11;103541.28;4978363;28;45511;-81
2022/01/18 00:48:32;;;;;;;;;50.25;39.00;;;;;7.12;64.34;103576.78;4978533;28;45559;-81
2022/01/18 00:51:21;;;;;;;;;68.75;54.75;;;;;7.10;64.26;103559.94;4979014;28;45433;-80
2022/01/18 00:54:00;;;;;;;;;67.00;53.50;;;;;7.09;64.13;103554.59;4978754;28;45424;-80
2022/01/18 00:56:51;;;;;;;;;64.25;51.75;;;;;6.99;64.00;103556.22;4977801;28;45397;-80
2022/01/18 00:59:25;;;;;;;;;61.00;48.75;;;;;7.05;64.31;103569.59;4978215;28;45431;-80
2022/01/18 01:02:11;;;;;;;;;64.50;50.25;;;;;7.01;64.33;103557.13;4978892;28;45597;-80
2022/01/18 01:04:57;;;;;;;;;64.50;52.25;;;;;7.02;64.26;103565.97;4973174;28;45362;-80
2022/01/18 01:07:23;;;;;;;;;66.50;54.00;;;;;7.00;64.32;103565.97;4994931;28;45381;-80
2022/01/18 01:09:56;;;;;;;;;64.00;51.25;;;;;6.97;64.59;103569.44;4979331;28;45326;-80
2022/01/18 01:12:39;;;;;;;;;63.00;50.00;;;;;6.93;64.60;103551.72;4978437;28;45569;-80
2022/01/18 01:15:11;;;;;;;;;66.75;51.00;;;;;6.97;64.49;103568.56;4977189;28;46358;-80
2022/01/18 01:33:02;;;;;;;;;53.75;44.00;;;;;6.93;64.79;103557.03;4978221;28;45451;-80
2022/01/18 01:44:01;;;;;;;;;50.00;40.00;;;;;7.04;65.56;103564.25;4977927;28;45444;-80
2022/01/18 01:46:21;;;;;;;;;40.00;33.00;;;;;7.03;65.43;103539.50;4976632;28;46828;-80
2022/01/18 01:48:58;;;;;;;;;42.25;35.00;;;;;7.16;65.73;103556.47;4973091;28;45794;-80
2022/01/18 01:54:58;;;;;;;;;33.75;31.00;;;;;7.35;65.83;103568.28;4961807;28;45603;-80
2022/01/18 01:57:47;;;;;;;;;32.25;28.50;;;;;7.17;65.63;103522.03;4978184;28;45349;-81
2022/01/18 02:00:16;;;;;;;;;29.50;28.25;;;;;7.34;65.62;103548.81;4977423;28;46635;-80
2022/01/18 02:02:42;;;;;;;;;33.75;32.50;;;;;7.37;65.64;103545.31;4976717;28;45515;-80
2022/01/18 02:05:22;;;;;;;;;33.25;28.75;;;;;7.36;65.46;103536.47;4975886;28;46441;-80
2022/01/18 02:07:48;;;;;;;;;30.00;26.00;;;;;7.55;65.06;103565.94;4957937;28;45374;-80
2022/01/18 02:10:22;;;;;;;;;37.50;29.75;;;;;7.38;64.60;103534.72;4959336;28;45406;-80
2022/01/18 02:13:15;;;;;;;;;30.67;25.67;;;;;7.53;65.03;103559.69;4977614;28;45539;-80
2022/01/18 02:15:58;;;;;;;;;34.50;29.75;;;;;7.32;64.95;103518.72;4977644;28;45231;-80
2022/01/18 02:21:52;;;;;;;;;37.25;27.25;;;;;7.63;64.43;103560.72;4976648;28;45703;-80
2022/01/18 02:27:53;;;;;;;;;30.00;29.00;;;;;7.39;64.74;103509.09;4971830;28;45423;-80
2022/01/18 02:30:32;;;;;;;;;33.33;26.00;;;;;7.41;64.88;103512.66;4977564;28;45566;-80
2022/01/18 02:32:57;;;;;;;;;25.67;23.33;;;;;7.65;65.22;103557.22;4959220;28;47066;-80
2022/01/18 02:35:26;;;;;;;;;21.67;20.00;;;;;7.56;65.13;103528.81;4978823;28;45472;-80
2022/01/18 02:38:02;;;;;;;;;24.33;20.00;;;;;7.52;64.67;103521.66;4980489;28;45405;-80
2022/01/18 02:40:29;;;;;;;;;22.67;20.67;;;;;7.39;64.64;103512.63;4980891;28;45502;-80
2022/01/18 02:46:04;;;;;;;;;20.67;18.00;;;;;7.53;64.41;103519.91;4979788;28;45337;-81
2022/01/18 02:48:44;;;;;;;;;20.00;19.00;;;;;7.55;64.65;103523.47;4962084;28;45555;-80
2022/01/18 02:51:10;;;;;;;;;23.33;21.00;;;;;7.70;64.17;103557.28;4980522;28;46241;-81
2022/01/18 02:54:15;;;;;;;;;30.00;18.00;;;;;7.66;64.46;103551.06;4980168;28;46182;-80
2022/01/18 03:00:04;;;;;;;;;19.67;16.00;;;;;7.69;64.43;103561.69;4922569;28;45583;-81
2022/01/18 03:05:32;;;;;;;;;27.67;20.33;;;;;7.72;64.61;103561.72;4915678;28;45841;-80
2022/01/18 03:07:58;;;;;;;;;19.67;17.67;;;;;6.87;63.90;103410.22;4938550;28;46056;-80
2022/01/18 03:10:23;;;;;;;;;28.67;22.67;;;;;7.66;64.70;103545.75;4939530;28;45635;-80
2022/01/18 03:12:48;;;;;;;;;23.67;18.33;;;;;7.64;64.82;103536.88;4939649;28;45446;-80
2022/01/18 03:15:14;;;;;;;;;25.00;21.00;;;;;7.70;64.53;103546.66;4938899;28;45422;-80
2022/01/18 03:17:42;;;;;;;;;21.67;19.00;;;;;7.53;64.30;103514.59;4939056;28;45408;-80
2022/01/18 03:20:20;;;;;;;;;23.00;17.67;;;;;7.46;64.77;103502.09;4938727;28;45423;-80
2022/01/18 03:23:00;;;;;;;;;24.33;21.67;;;;;7.66;64.65;103537.78;4923603;28;45458;-80
2022/01/18 03:28:08;;;;;;;;;24.00;19.33;;;;;7.49;64.71;103488.88;4938677;28;45287;-80
2022/01/18 03:30:46;;;;;;;;;26.00;20.67;;;;;7.45;64.69;103484.41;4960114;28;45493;-81
2022/01/18 03:33:35;;;;;;;;;21.00;20.00;;;;;7.60;64.97;103516.44;4979317;28;45499;-80
2022/01/18 03:36:35;;;;;;;;;24.67;18.67;;;;;7.55;64.87;103502.22;4958588;28;46655;-80
2022/01/18 03:39:26;;;;;;;;;24.00;21.00;;;;;7.59;64.30;103522.66;4979699;28;45555;-81
2022/01/18 03:45:45;;;;;;;;;24.00;17.67;;;;;7.52;64.28;103489.81;4919778;28;45371;-81
2022/01/18 03:51:23;;;;;;;;;23.33;18.67;;;;;7.50;64.95;103518.09;4918831;28;45549;-81
2022/01/18 03:53:52;;;;;;;;;23.00;17.00;;;;;7.37;64.93;103487.88;4919218;28;45413;-80
2022/01/18 03:56:25;;;;;;;;;24.00;24.00;;;;;7.39;64.93;103496.69;4919484;28;45570;-81
2022/01/18 03:58:52;;;;;;;;;26.00;18.67;;;;;7.45;65.07;103498.56;4919333;28;45591;-81
2022/01/18 04:01:33;;;;;;;;;26.00;22.00;;;;;7.17;64.77;103454.84;4918227;28;45508;-81
2022/01/18 04:04:27;;;;;;;;;23.67;21.00;;;;;7.53;64.83;103518.13;4918981;28;45432;-81
2022/01/18 04:07:28;;;;;;;;;13.33;12.33;;;;;7.43;64.47;103502.06;4900224;29;45415;-80
2022/01/18 04:09:59;;;;;;;;;32.00;24.33;;;;;7.45;64.60;103508.31;4899853;29;46155;-81
2022/01/18 04:12:47;;;;;;;;;30.00;21.67;;;;;7.46;65.14;103516.25;4899357;29;45635;-80
2022/01/18 04:15:31;;;;;;;;;28.33;23.67;;;;;7.49;64.63;103511.03;4884090;29;45764;-80
2022/01/18 04:29:09;;;;;;;;;23.67;21.67;;;;;7.30;65.36;103490.38;4959769;28;45560;-81
2022/01/18 04:34:24;;;;;;;;;27.67;23.67;;;;;7.43;65.75;103508.25;4951750;28;45418;-81
2022/01/18 04:37:18;;;;;;;;;26.67;23.00;;;;;7.49;65.09;103524.28;4959292;28;45434;-81
2022/01/18 04:39:45;;;;;;;;;22.33;20.33;;;;;7.49;65.50;103516.31;4959626;28;45541;-81
2022/01/18 04:42:19;;;;;;;;;28.00;25.00;;;;;7.49;65.51;103516.31;4959484;28;45545;-81
2022/01/18 04:51:18;;;;;;;;;31.33;24.00;;;;;7.26;65.41;103478.84;4853054;29;45548;-81
2022/01/18 04:54:42;;;;;;;;;29.00;23.67;;;;;7.42;65.26;103514.44;4861824;29;45472;-81
2022/01/18 04:59:36;;;;;;;;;23.00;22.33;;;;;7.15;65.54;103459.22;4861570;29;45472;-81
2022/01/18 05:02:02;;;;;;;;;31.33;26.00;;;;;7.30;65.45;103487.72;4861516;29;45598;-81
2022/01/18 05:04:30;;;;;;;;;29.33;23.67;;;;;7.33;65.34;103487.78;4861896;29;45375;-80
2022/01/18 05:07:00;;;;;;;;;30.33;25.67;;;;;7.32;65.31;103492.19;4877711;29;45942;-81
2022/01/18 05:09:29;;;;;;;;;27.33;24.00;;;;;7.35;65.20;103502.88;4899457;29;45480;-81
2022/01/18 05:15:52;;;;;;;;;29.33;24.67;;;;;7.24;65.42;103493.84;4876631;29;46817;-80
2022/01/18 05:23:36;;;;;;;;;23.67;23.33;;;;;7.05;65.64;103459.97;4843180;29;45470;-81
2022/01/18 05:26:02;;;;;;;;;32.00;26.00;;;;;7.32;65.57;103508.09;4900468;28;46049;-81
2022/01/18 05:28:28;;;;;;;;;23.67;23.33;;;;;7.17;65.47;103479.59;4918112;28;45827;-81
2022/01/18 05:30:59;;;;;;;;;25.33;19.00;;;;;7.10;65.88;103472.44;4890233;29;45504;-81
2022/01/18 05:33:27;;;;;;;;;39.00;28.75;;;;;7.29;65.48;103505.41;4898902;29;45350;-81
2022/01/18 05:35:54;;;;;;;;;36.33;29.67;;;;;7.24;66.03;103499.16;4890903;29;46574;-81
2022/01/18 05:38:29;;;;;;;;;30.25;28.25;;;;;7.19;65.88;103488.47;4879432;29;45596;-81
2022/01/18 05:44:31;;;;;;;;;30.25;29.75;;;;;7.02;66.12;103458.16;4884559;28;45658;-81
2022/01/18 05:47:24;;;;;;;;;40.25;31.50;;;;;7.21;66.61;103476.97;4892869;28;45443;-81
2022/01/18 05:50:12;;;;;;;;;33.25;26.75;;;;;6.95;65.99;103441.28;4912912;28;45481;-81
2022/01/18 05:52:38;;;;;;;;;33.50;31.25;;;;;7.18;66.53;103481.38;4885923;28;45558;-81
2022/01/18 05:55:13;;;;;;;;;27.67;24.67;;;;;6.87;65.69;103415.50;4938861;28;45567;-81
2022/01/18 05:57:38;;;;;;;;;24.33;22.33;;;;;7.07;66.04;103452.91;4921190;28;47074;-81
2022/01/18 06:00:17;;;;;;;;;;;;;;;;;;;;;
2022/01/18 06:03:32;;;;;;;;;17.00;16.00;;;;;6.93;65.49;103437.72;4954065;28;68902;-81
2022/01/18 06:09:41;;;;;;;;;21.00;18.33;;;;;7.18;64.92;103494.63;4979215;28;47294;-81
2022/01/18 06:15:39;;;;;;;;;22.00;19.00;;;;;7.14;65.55;103483.97;4923432;28;45665;-82
2022/01/18 06:18:36;;;;;;;;;20.33;18.67;;;;;7.20;65.16;103499.97;4933300;28;45659;-83
2022/01/18 06:21:13;;;;;;;;;21.33;17.67;;;;;7.22;65.31;103505.31;4914929;28;46148;-82
2022/01/18 06:23:41;;;;;;;;;26.33;23.00;;;;;6.88;65.26;103449.09;4936154;28;45307;-82
2022/01/18 06:26:22;;;;;;;;;25.33;20.67;;;;;7.03;65.46;103475.84;4925854;28;45599;-84
2022/01/18 06:29:13;;;;;;;;;24.33;21.00;;;;;6.93;65.62;103458.94;4933914;28;45581;-81
2022/01/18 06:31:38;;;;;;;;;20.00;18.33;;;;;7.03;65.43;103485.59;4934496;28;45585;-84
2022/01/18 06:34:03;;;;;;;;;28.67;23.00;;;;;6.52;65.39;103397.31;4927544;28;45529;-84
2022/01/18 06:36:29;;;;;;;;;30.33;21.33;;;;;6.68;65.19;103436.44;4935318;28;46008;-85
2022/01/18 06:38:54;;;;;;;;;24.67;22.67;;;;;6.56;65.34;103399.16;4928043;28;45455;-85
2022/01/18 06:41:20;;;;;;;;;30.00;22.67;;;;;6.82;65.48;103454.31;4926502;28;45920;-86
2022/01/18 06:43:45;;;;;;;;;22.33;21.67;;;;;7.01;65.02;103471.41;4934961;28;45281;-85
2022/01/18 06:46:11;;;;;;;;;26.00;20.00;;;;;7.06;65.22;103489.16;4934867;28;45309;-85
2022/01/18 06:48:39;;;;;;;;;24.33;22.33;;;;;7.30;65.31;103522.22;4935707;28;45447;-85
2022/01/18 06:51:05;;;;;;;;;23.33;22.00;;;;;6.93;64.90;103456.28;4919272;28;47452;-85
2022/01/18 06:53:35;;;;;;;;;28.50;22.25;;;;;7.01;64.68;103464.34;4974699;28;45769;-86
2022/01/18 06:56:02;;;;;;;;;26.00;21.33;;;;;7.39;64.51;103531.19;4977045;28;45715;-85
2022/01/18 06:58:28;;;;;;;;;22.33;18.00;;;;;7.03;64.34;103467.91;4977245;28;45499;-86
2022/01/18 07:00:53;;;;;;;;;23.67;21.00;;;;;7.05;64.14;103471.47;4976962;28;45519;-85
2022/01/18 07:03:20;;;;;;;;;28.50;25.25;;;;;6.94;64.44;103451.84;4976884;28;45496;-84
2022/01/18 07:05:45;;;;;;;;;36.50;32.25;;;;;7.37;64.76;103535.63;4977074;28;45388;-85
2022/01/18 07:08:11;;;;;;;;;33.50;29.50;;;;;6.31;65.00;103337.81;4977325;28;45377;-85
2022/01/18 07:10:36;;;;;;;;;37.00;28.25;;;;;7.38;65.06;103524.13;4975691;28;45385;-84
2022/01/18 07:13:01;;;;;;;;;26.33;22.67;;;;;7.30;64.74;103506.28;4975737;28;45504;-84
2022/01/18 07:15:27;;;;;;;;;26.67;23.00;;;;;7.18;64.93;103481.38;4978262;28;46238;-84
2022/01/18 07:17:52;;;;;;;;;24.33;20.67;;;;;7.18;64.47;103470.75;4978767;28;45440;-84
2022/01/18 07:20:17;;;;;;;;;24.00;22.00;;;;;7.15;64.51;103470.72;4976423;28;46124;-84
2022/01/18 07:22:43;;;;;;;;;27.67;24.00;;;;;7.35;64.93;103515.22;4961942;28;45724;-86
2022/01/18 07:25:14;;;;;;;;;32.50;27.25;;;;;7.36;64.64;103504.63;4979173;28;45468;-84
2022/01/18 07:27:40;;;;;;;;;29.33;24.33;;;;;7.23;64.93;103475.25;4972785;28;45460;-85
2022/01/18 07:30:06;;;;;;;;;29.50;25.25;;;;;7.10;64.86;103450.31;4979268;28;45788;-84
2022/01/18 07:32:31;;;;;;;;;39.00;31.75;;;;;7.35;64.45;103491.34;4961873;28;45516;-85
2022/01/18 07:34:57;;;;;;;;;36.25;31.00;;;;;7.39;64.81;103509.97;4979792;28;45381;-86
2022/01/18 07:37:23;;;;;;;;;36.25;30.75;;;;;7.40;64.57;103501.16;4959100;28;45523;-85
2022/01/18 07:39:50;;;;;;;;;40.50;35.00;;;;;7.38;64.69;103492.28;4947932;28;47187;-85
2022/01/18 07:42:16;;;;;;;;;34.75;31.25;;;;;7.37;64.67;103486.94;4979262;28;45467;-85
2022/01/18 07:44:42;;;;;;;;;31.75;27.75;;;;;7.16;65.17;103446.00;4980180;28;45294;-85
2022/01/18 07:47:07;;;;;;;;;36.25;32.50;;;;;7.28;65.20;103477.13;4980354;28;45401;-85
2022/01/18 07:49:33;;;;;;;;;33.50;27.75;;;;;7.35;65.16;103486.03;4961690;28;47066;-85
2022/01/18 07:51:58;;;;;;;;;23.75;21.25;;;;;7.33;65.07;103493.97;4979750;28;45307;-85
2022/01/18 07:54:23;;;;;;;;;28.50;26.25;;;;;7.32;65.31;103489.53;4979647;28;45512;-84
2022/01/18 07:56:48;;;;;;;;;32.00;27.50;;;;;7.09;65.33;103449.41;4980023;28;45415;-84
2022/01/18 07:59:14;;;;;;;;;30.00;29.25;;;;;7.34;65.02;103493.09;4962173;28;47012;-84
2022/01/18 08:01:42;;;;;;;;;25.00;24.75;;;;;7.06;65.25;103437.88;4978692;28;45554;-84
2022/01/18 08:04:07;;;;;;;;;28.00;24.00;;;;;7.18;65.58;103470.75;4961782;28;45449;-84
2022/01/18 08:06:32;;;;;;;;;37.25;32.75;;;;;7.18;65.07;103465.47;4989913;28;45487;-84
2022/01/18 08:08:58;;;;;;;;;45.25;36.50;;;;;7.26;65.81;103483.25;4978967;28;46341;-79
2022/01/18 08:11:23;;;;;;;;;34.25;29.50;;;;;7.09;65.14;103453.81;4960679;28;45706;-80
2022/01/18 08:13:50;;;;;;;;;42.00;35.00;;;;;6.86;65.68;103421.66;4973040;28;45340;-80
2022/01/18 08:16:47;;;;;;;;;33.75;33.25;;;;;7.22;65.31;103474.38;4978230;28;45487;-80
2022/01/18 08:19:05;;;;;;;;;39.75;33.50;;;;;7.10;65.85;103452.97;4961355;28;45817;-79
2022/01/18 08:21:31;;;;;;;;;31.75;26.00;;;;;7.17;65.51;103466.34;4978637;28;45595;-80
2022/01/18 08:23:56;;;;;;;;;42.75;33.25;;;;;7.04;65.64;103443.16;4975437;28;49806;-80
2022/01/18 08:26:21;;;;;;;;;35.75;30.75;;;;;6.88;65.97;103418.19;4959157;28;45639;-79
2022/01/18 08:28:47;;;;;;;;;56.00;42.25;;;;;6.91;66.05;103434.16;4975408;28;46612;-80
2022/01/18 08:31:13;;;;;;;;;71.50;54.75;;;;;7.17;66.13;103471.66;4975575;28;49263;-79
2022/01/18 08:33:38;;;;;;;;;45.50;36.75;;;;;7.06;65.99;103445.84;4974820;28;45567;-81
2022/01/18 08:36:06;;;;;;;;;38.50;31.50;;;;;7.21;66.00;103483.22;4980927;28;45397;-80
2022/01/18 08:38:32;;;;;;;;;30.50;27.50;;;;;7.22;65.73;103484.97;4976810;28;45397;-80
2022/01/18 08:40:59;;;;;;;;;34.00;29.50;;;;;7.26;66.15;103473.53;4970372;28;45494;-81
2022/01/18 08:43:25;;;;;;;;;35.25;30.50;;;;;7.06;65.84;103451.16;4975497;28;45673;-82
2022/01/18 08:45:50;;;;;;;;;37.25;31.75;;;;;7.30;65.91;103488.63;4959555;28;45576;-81
2022/01/18 08:48:16;;;;;;;;;33.75;29.75;;;;;7.12;65.55;103452.13;4976789;28;45523;-82
2022/01/18 08:50:42;;;;;;;;;35.00;29.50;;;;;7.28;66.22;103481.50;4975388;28;45980;-81
2022/01/18 08:53:07;;;;;;;;;42.50;33.25;;;;;6.89;65.59;103397.88;4958861;28;45480;-82
2022/01/18 08:55:34;;;;;;;;;45.50;38.00;;;;;7.37;66.01;103498.47;4977266;28;45636;-82
2022/01/18 08:58:00;;;;;;;;;50.00;37.75;;;;;7.03;66.36;103432.53;4977112;28;46402;-84
2022/01/18 09:00:26;;;;;;;;;60.50;47.75;;;;;7.22;65.98;103460.22;4977348;28;45535;-82
2022/01/18 09:02:52;;;;;;;;;48.75;36.50;;;;;7.18;66.15;103440.69;4981568;28;45384;-82
2022/01/18 09:05:21;;;;;;;;;66.75;52.75;;;;;7.46;66.75;103486.19;4982660;28;45597;-83
2022/01/18 09:07:46;;;;;;;;;51.25;42.00;;;;;7.40;66.10;103474.63;4980401;28;45634;-82
2022/01/18 09:10:12;;;;;;;;;44.75;36.00;;;;;7.10;65.96;103418.50;4977411;28;45490;-82
2022/01/18 09:12:38;;;;;;;;;49.00;40.00;;;;;7.37;65.89;103465.72;4982557;28;45436;-82
2022/01/18 09:15:06;;;;;;;;;51.25;41.50;;;;;7.53;65.43;103485.41;4980680;28;45538;-82
2022/01/18 09:17:33;;;;;;;;;45.50;35.50;;;;;7.60;65.13;103477.53;4983572;28;46271;-82
2022/01/18 09:20:00;;;;;;;;;43.00;34.25;;;;;7.70;65.18;103477.63;4979743;28;45454;-82
2022/01/18 09:22:25;;;;;;;;;41.25;32.50;;;;;7.79;65.39;103483.94;4979930;28;45643;-82
2022/01/18 09:24:51;;;;;;;;;47.75;37.75;;;;;7.48;65.16;103411.03;4967733;28;45512;-82
2022/01/18 09:27:16;;;;;;;;;53.00;39.75;;;;;7.70;64.65;103440.47;4984260;28;45930;-82
2022/01/18 09:29:42;;;;;;;;;57.50;46.25;;;;;7.95;64.47;103477.06;4981056;28;45376;-83
2022/01/18 09:32:08;;;;;;;;;59.50;47.00;;;;;7.65;64.92;103418.31;4961310;28;45654;-82
2022/01/18 09:34:33;;;;;;;;;71.00;55.00;;;;;7.83;64.93;103437.97;4964217;28;45497;-83
2022/01/18 09:36:59;;;;;;;;;56.00;44.00;;;;;7.91;64.77;103453.09;4960601;28;47005;-83
2022/01/18 09:39:26;;;;;;;;;56.75;43.75;;;;;7.87;64.41;103430.06;4976134;28;45519;-81
2022/01/18 09:41:54;;;;;;;;;54.00;43.75;;;;;8.13;64.69;103468.41;4957594;28;45548;-79
2022/01/18 09:44:21;;;;;;;;;51.50;41.25;;;;;8.14;65.02;103458.66;4975915;28;45831;-79
2022/01/18 09:46:51;;;;;;;;;55.50;44.75;;;;;8.04;64.16;103421.38;4974864;28;46436;-82
2022/01/18 09:49:17;;;;;;;;;69.75;51.50;;;;;8.42;63.69;103459.84;4977204;28;45530;-82
2022/01/18 09:51:43;;;;;;;;;57.75;46.75;;;;;8.51;63.19;103445.75;4976530;28;45507;-82
2022/01/18 09:54:09;;;;;;;;;57.25;45.50;;;;;8.51;63.10;103428.03;4977101;28;45762;-83
2022/01/18 09:56:34;;;;;;;;;59.75;48.25;;;;;8.62;63.70;103444.97;4979211;28;46115;-83
2022/01/18 09:59:00;;;;;;;;;62.00;48.00;;;;;8.82;63.49;103462.84;4958222;28;45759;-82
2022/01/18 10:01:25;;;;;;;;;60.75;46.75;;;;;8.78;63.05;103448.66;4964063;28;45557;-82
2022/01/18 10:03:51;;;;;;;;;49.50;41.00;;;;;8.90;63.50;103461.16;4980193;28;45848;-83
2022/01/18 10:06:19;;;;;;;;;47.75;37.75;;;;;9.04;63.66;103470.09;4974336;28;46437;-83
2022/01/18 10:08:48;;;;;;;;;28.00;25.75;;;;;9.15;64.21;103462.16;4976762;28;45522;-82
2022/01/18 10:11:16;;;;;;;;;37.75;31.00;;;;;9.19;64.14;103449.78;4981789;28;45334;-84
2022/01/18 10:13:42;;;;;;;;;34.00;30.33;;;;;9.19;64.29;103429.38;4975962;28;45475;-85
2022/01/18 10:16:20;;;;;;;;;29.67;28.00;;;;;9.03;64.41;103385.84;4974791;28;45567;-87
2022/01/18 10:18:49;;;;;;;;;29.67;27.33;;;;;8.88;64.06;103328.13;4976960;28;45767;-85
2022/01/18 10:21:44;;;;;;;;;;;;;;;;;;;;;
2022/01/18 10:24:34;;;;;;;;;29.67;26.00;;;;;8.98;63.68;103331.72;4976351;28;60901;-87
2022/01/18 10:27:02;;;;;;;;;32.67;30.00;;;;;8.25;64.07;103178.03;4982059;28;46299;-85
2022/01/18 10:29:36;;;;;;;;;30.33;26.00;;;;;9.93;63.89;103443.88;4982439;28;45464;-84
2022/01/18 10:37:28;;;;;;;;;29.33;25.33;;;;;9.60;63.69;103330.19;4971808;28;45467;-84
2022/01/18 10:40:06;;;;;;;;;30.00;25.00;;;;;9.96;63.15;103376.38;4980590;28;45574;-84
2022/01/18 10:42:41;;;;;;;;;30.67;29.33;;;;;10.02;62.71;103378.16;4963841;28;45739;-81
2022/01/18 10:45:09;;;;;;;;;27.33;25.33;;;;;10.32;63.06;103410.22;4980005;28;45583;-86
2022/01/18 10:47:36;;;;;;;;;54.50;41.50;;;;;10.38;63.10;103408.44;4973754;28;46347;-87
2022/01/18 10:50:15;;;;;;;;;32.50;30.00;;;;;10.11;63.10;103349.78;4969875;28;46048;-89
2022/01/18 10:56:14;;;;;;;;;26.00;21.33;;;;;10.56;63.04;103382.66;4977060;28;45330;-89
2022/01/18 10:58:48;;;;;;;;;34.00;27.33;;;;;10.62;63.08;103370.19;4974185;28;46509;-87
2022/01/18 11:01:17;;;;;;;;;29.33;26.67;;;;;10.50;62.83;103347.09;4961513;28;45436;-87
2022/01/18 11:04:24;;;;;;;;;26.00;22.67;;;;;10.69;62.59;103358.63;4980711;28;45313;-91
2022/01/18 11:06:58;;;;;;;;;29.33;23.67;;;;;10.74;63.17;103365.72;4969379;28;45530;-90
2022/01/18 11:09:24;;;;;;;;;30.67;24.67;;;;;10.31;62.83;103277.81;4970565;28;47651;-92
2022/01/18 11:12:00;;;;;;;;;27.33;23.67;;;;;9.59;62.22;103152.66;4980391;28;45434;-89
2022/01/18 11:14:26;;;;;;;;;27.00;22.67;;;;;9.42;62.55;103106.53;4960660;28;45544;-91
2022/01/18 11:16:56;;;;;;;;;22.00;19.67;;;;;10.91;61.80;103363.03;4955219;28;45473;-89
2022/01/18 11:19:33;;;;;;;;;25.33;21.33;;;;;9.46;61.87;103087.91;4976566;28;46153;-90
2022/01/18 11:25:52;;;;;;;;;24.00;22.33;;;;;9.92;61.05;103132.19;4884959;29;45573;-91
2022/01/18 11:28:18;;;;;;;;;22.00;17.33;;;;;10.26;60.81;103172.94;4866871;29;45602;-92
2022/01/18 11:30:45;;;;;;;;;22.00;19.33;;;;;10.48;61.25;103189.78;4891645;29;48241;-91
2022/01/18 11:33:14;;;;;;;;;21.00;21.00;;;;;11.21;60.70;103313.06;4888462;29;45635;-90
2022/01/18 11:35:51;;;;;;;;;20.00;20.00;;;;;10.95;60.36;103244.69;4883016;29;45366;-89
2022/01/18 11:38:35;;;;;;;;;23.33;21.67;;;;;10.37;60.68;103130.28;4882602;29;45398;-89
2022/01/18 11:41:11;;;;;;;;;18.33;16.00;;;;;10.72;59.69;103186.13;4881366;29;45586;-91
2022/01/18 11:43:51;;;;;;;;;20.33;18.67;;;;;10.76;60.74;103169.19;4881245;29;45600;-90
2022/01/18 11:46:24;;;;;;;;;19.67;17.00;;;;;11.49;60.39;103281.75;4881669;29;45485;-91
2022/01/18 11:49:05;;;;;;;;;24.00;19.00;;;;;10.81;59.99;103162.97;4878790;29;45595;-90
2022/01/18 11:51:48;;;;;;;;;21.67;19.33;;;;;11.01;59.66;103178.84;4866082;29;48331;-90
2022/01/18 11:54:44;;;;;;;;;18.67;18.67;;;;;11.65;58.58;103265.63;4866271;28;46514;-89
2022/01/18 11:57:21;;;;;;;;;24.33;18.67;;;;;11.19;58.80;103171.59;4919853;28;45508;-89
2022/01/18 11:59:49;;;;;;;;;14.67;12.33;;;;;10.65;57.51;103069.72;4920006;28;45498;-93
2022/01/18 12:02:34;;;;;;;;;13.67;11.67;;;;;11.81;58.07;103257.47;4936564;28;47260;-86
2022/01/18 12:05:12;;;;;;;;;11.33;11.00;;;;;11.47;58.10;103182.09;4960282;28;45532;-89
2022/01/18 12:07:38;;;;;;;;;12.67;11.00;;;;;11.97;58.27;103242.22;4974747;28;45601;-87
2022/01/18 12:10:06;;;;;;;;;11.33;11.33;;;;;11.89;57.43;103225.34;4977708;28;45483;-89
2022/01/18 12:12:41;;;;;;;;;7.00;7.00;;;;;11.80;57.08;103188.03;4966379;28;48629;-90
2022/01/18 12:15:15;;;;;;;;;9.67;8.67;;;;;12.13;55.71;103239.41;4961059;28;45689;-93
2022/01/18 12:17:55;;;;;;;;;11.33;10.67;;;;;12.15;55.54;103227.78;4957880;28;45371;-87
2022/01/18 12:20:35;;;;;;;;;8.33;8.33;;;;;11.76;54.99;103152.41;4961764;28;45442;-86
2022/01/18 12:23:01;;;;;;;;;12.00;10.67;;;;;12.07;55.30;103200.25;4969350;28;47054;-89
2022/01/18 12:26:00;;;;;;;;;13.00;13.00;;;;;12.29;55.58;103218.72;4970527;28;45451;-92
2022/01/18 12:34:36;;;;;;;;;10.00;8.67;;;;;12.51;55.49;103197.97;4956807;28;46006;-90
2022/01/18 12:37:24;;;;;;;;;12.67;12.33;;;;;12.43;55.41;103176.66;4941022;28;45586;-92
2022/01/18 12:39:49;;;;;;;;;15.00;11.33;;;;;12.60;54.39;103188.03;4943549;28;45332;-92
2022/01/18 12:45:01;;;;;;;;;6.67;5.67;;;;;12.56;55.15;103169.38;4951991;28;45519;-92
2022/01/18 12:47:28;;;;;;;;;9.33;9.33;;;;;11.95;55.25;103066.75;4958457;28;45223;-91
2022/01/18 12:49:54;;;;;;;;;16.33;12.33;;;;;12.23;54.74;103096.69;4957305;28;45593;-93
2022/01/18 12:52:21;;;;;;;;;14.33;11.00;;;;;11.68;55.13;102995.78;4944061;28;45621;-92
2022/01/18 12:54:48;;;;;;;;;12.00;10.00;;;;;12.81;53.16;103169.94;4943331;28;48252;-92
2022/01/18 12:57:22;;;;;;;;;8.00;8.00;;;;;12.21;53.96;103061.06;4952778;28;45622;-92
2022/01/18 13:00:08;;;;;;;;;14.00;11.67;;;;;12.25;53.28;103066.34;4974309;28;45361;-94
2022/01/18 13:02:34;;;;;;;;;15.33;12.67;;;;;12.64;52.48;103119.31;4961638;28;45536;-91
2022/01/18 13:05:02;;;;;;;;;13.33;11.67;;;;;12.59;52.52;103099.75;4977853;28;48110;-93
2022/01/18 13:07:28;;;;;;;;;10.67;9.67;;;;;12.44;51.97;103069.66;4963211;28;45487;-92
2022/01/18 13:10:08;;;;;;;;;8.67;6.67;;;;;12.92;52.05;103143.00;4964072;28;45622;-96
2022/01/18 13:12:39;;;;;;;;;15.00;11.67;;;;;13.01;52.39;103151.75;4962731;28;45504;-90
2022/01/18 13:15:07;;;;;;;;;17.67;17.67;;;;;12.77;52.38;103109.31;4959478;28;47164;-87
2022/01/18 13:23:21;;;;;;;;;12.00;11.00;;;;;13.08;52.13;103148.09;4974458;28;45301;-89
2022/01/18 13:25:56;;;;;;;;;17.33;15.33;;;;;12.88;52.59;103086.84;4956488;28;47782;-87
2022/01/18 13:28:35;;;;;;;;;14.67;12.33;;;;;12.74;52.42;103062.09;4973295;28;45446;-86
2022/01/18 13:31:21;;;;;;;;;15.33;14.00;;;;;13.10;52.19;103119.50;4976589;28;45563;-87
2022/01/18 13:33:57;;;;;;;;;12.33;11.33;;;;;12.81;51.86;103062.88;4976126;28;45496;-87
2022/01/18 13:36:24;;;;;;;;;13.33;12.00;;;;;12.95;52.40;103074.25;4976574;28;46234;-85
2022/01/18 13:38:50;;;;;;;;;15.00;12.67;;;;;12.84;52.16;103053.00;4976564;28;45484;-88
2022/01/18 13:41:20;;;;;;;;;13.00;13.00;;;;;12.78;52.68;103039.72;4977622;28;45614;-87
2022/01/18 13:43:47;;;;;;;;;20.67;15.33;;;;;12.94;52.51;103059.06;4959736;28;45389;-89
2022/01/18 13:46:26;;;;;;;;;12.67;10.33;;;;;12.99;52.79;103053.66;4960902;28;47281;-91
2022/01/18 13:49:09;;;;;;;;;16.67;15.67;;;;;12.63;52.96;102963.25;4977538;28;45563;-89
2022/01/18 13:51:36;;;;;;;;;20.00;18.33;;;;;13.50;52.56;103099.22;4977109;28;45713;-86
2022/01/18 13:54:08;;;;;;;;;16.00;12.33;;;;;13.37;52.41;103060.16;4974119;28;45535;-84
2022/01/18 13:56:46;;;;;;;;;12.00;12.00;;;;;13.46;52.11;103066.25;4974521;28;46211;-84